Time;durP1;ratioP1;P1;durP2;ratioP2;P2;SDS_P1;SDS_P2;PMS_P1;PMS_P2;Temp;Humidity;BMP_temperature;BMP_pressure;BME280_temperature;BME280_humidity;BME280_pressure;Samples;Min_cycle;Max_cycle;Signal;HPM_P1;HPM_P2
2023/02/14 00:00:35;;;;;;;;;;;7.00;1.00;;;;;;5076123;28;20285;-79
2023/02/14 00:03:09;;;;;;;;;;;7.00;1.00;;;;;;5074505;28;19958;-80
2023/02/14 00:05:38;;;;;;;;;;;6.90;1.00;;;;;;5076357;28;20281;-78
2023/02/14 00:08:13;;;;;;;;;;;6.80;1.00;;;;;;5076147;28;19912;-79
2023/02/14 00:10:47;;;;;;;;;;;6.80;1.00;;;;;;5075808;28;20361;-79
2023/02/14 00:13:27;;;;;;;;;;;6.80;1.00;;;;;;5057496;28;20404;-78
2023/02/14 00:16:03;;;;;;;;;;;6.70;1.00;;;;;;5057293;28;19913;-78
2023/02/14 00:21:21;;;;;;;;;;;6.50;1.00;;;;;;5075467;28;19915;-79
2023/02/14 00:23:47;;;;;;;;;;;6.40;1.00;;;;;;5057927;28;20007;-79
2023/02/14 00:26:16;;;;;;;;;;;6.30;1.00;;;;;;5059471;28;19943;-79
2023/02/14 00:29:03;;;;;;;;;;;6.30;1.00;;;;;;5061044;28;19916;-78
2023/02/14 00:34:35;;;;;;;;;;;6.20;1.00;;;;;;5078190;28;19916;-79
2023/02/14 00:37:16;;;;;;;;;;;6.10;1.00;;;;;;5078570;28;20289;-79
2023/02/14 00:39:47;;;;;;;;;;;6.10;1.00;;;;;;5061083;28;19909;-79
2023/02/14 00:42:30;;;;;;;;;;;6.00;1.00;;;;;;5077597;28;19920;-79
2023/02/14 00:47:28;;;;;;;;;;;6.00;1.00;;;;;;5056100;28;19929;-79
2023/02/14 00:49:54;;;;;;;;;;;5.90;1.00;;;;;;5058110;28;19935;-79
2023/02/14 00:52:19;;;;;;;;;;;5.90;1.00;;;;;;5056421;28;19909;-79
2023/02/14 00:54:45;;;;;;;;;;;5.90;1.00;;;;;;5039990;28;19908;-79
2023/02/14 00:57:10;;;;;;;;;;;5.90;1.00;;;;;;5057491;28;19908;-79
2023/02/14 00:59:36;;;;;;;;;;;5.80;1.00;;;;;;5057194;28;19909;-79
2023/02/14 01:02:01;;;;;;;;;;;5.80;1.00;;;;;;5039398;28;19963;-79
2023/02/14 01:04:27;;;;;;;;;;;5.80;1.00;;;;;;5039515;28;19916;-79
2023/02/14 01:06:52;;;;;;;;;;;5.80;1.00;;;;;;5039641;28;20003;-79
2023/02/14 01:09:18;;;;;;;;;;;5.70;1.00;;;;;;5057258;28;19913;-79
2023/02/14 01:11:43;;;;;;;;;;;5.80;1.00;;;;;;5057073;28;20353;-79
2023/02/14 01:14:09;;;;;;;;;;;5.70;1.00;;;;;;5056918;28;19913;-79
2023/02/14 01:16:35;;;;;;;;;;;5.80;1.00;;;;;;5057069;28;19999;-79
2023/02/14 01:19:01;;;;;;;;;;;5.80;1.00;;;;;;5057432;28;19915;-79
2023/02/14 01:21:28;;;;;;;;;;;5.80;1.00;;;;;;5039307;28;19913;-79
2023/02/14 01:23:54;;;;;;;;;;;5.70;1.00;;;;;;5057584;28;19913;-78
2023/02/14 01:26:20;;;;;;;;;;;5.70;1.00;;;;;;5056574;28;20007;-78
2023/02/14 01:28:46;;;;;;;;;;;5.60;1.00;;;;;;5056843;28;20380;-79
2023/02/14 01:31:12;;;;;;;;;;;5.60;1.00;;;;;;5038553;28;20007;-79
2023/02/14 01:33:38;;;;;;;;;;;5.60;1.00;;;;;;5056698;28;20362;-78
2023/02/14 01:36:04;;;;;;;;;;;5.50;1.00;;;;;;5038238;28;19909;-79
2023/02/14 01:38:29;;;;;;;;;;;5.50;1.00;;;;;;5056556;28;19916;-79
2023/02/14 01:40:54;;;;;;;;;;;5.40;1.00;;;;;;5056338;28;19920;-79
2023/02/14 01:43:20;;;;;;;;;;;5.40;1.00;;;;;;5056842;28;19913;-79
2023/02/14 01:45:45;;;;;;;;;;;5.40;1.00;;;;;;5056283;28;20389;-79
2023/02/14 01:48:11;;;;;;;;;;;5.30;1.00;;;;;;5056103;28;19908;-79
2023/02/14 01:50:38;;;;;;;;;;;5.30;1.00;;;;;;5038440;28;19909;-79
2023/02/14 01:53:06;;;;;;;;;;;5.30;1.00;;;;;;5055876;28;19916;-79
2023/02/14 01:55:33;;;;;;;;;;;5.30;1.00;;;;;;5056223;28;19932;-79
2023/02/14 01:58:01;;;;;;;;;;;5.30;1.00;;;;;;5056275;28;19948;-79
2023/02/14 02:03:12;;;;;;;;;;;5.30;1.00;;;;;;5056143;28;19942;-79
2023/02/14 02:05:40;;;;;;;;;;;5.30;1.00;;;;;;5038133;28;19908;-79
2023/02/14 02:08:05;;;;;;;;;;;5.30;1.00;;;;;;5038063;28;19958;-79
2023/02/14 02:10:31;;;;;;;;;;;5.20;1.00;;;;;;5038255;28;19908;-79
2023/02/14 02:12:58;;;;;;;;;;;5.10;1.00;;;;;;5038401;28;20384;-79
2023/02/14 02:15:25;;;;;;;;;;;5.00;1.00;;;;;;5037865;28;20282;-79
2023/02/14 02:18:02;;;;;;;;;;;5.00;1.00;;;;;;5038087;28;20448;-79
2023/02/14 02:20:28;;;;;;;;;;;4.90;1.00;;;;;;5037708;28;19909;-79
2023/02/14 02:23:12;;;;;;;;;;;4.80;1.00;;;;;;5055524;28;19936;-79
2023/02/14 02:25:56;;;;;;;;;;;4.80;1.00;;;;;;5055390;28;19916;-79
2023/02/14 02:28:31;;;;;;;;;;;4.70;1.00;;;;;;5056020;28;19912;-79
2023/02/14 02:31:15;;;;;;;;;;;4.70;1.00;;;;;;5037286;28;19909;-78
2023/02/14 02:33:46;;;;;;;;;;;4.60;1.00;;;;;;5037819;28;19909;-79
2023/02/14 02:36:24;;;;;;;;;;;4.60;1.00;;;;;;5037663;28;19909;-78
2023/02/14 02:38:58;;;;;;;;;;;4.50;1.00;;;;;;5038044;28;20334;-78
2023/02/14 02:41:26;;;;;;;;;;;4.50;1.00;;;;;;5055289;28;19916;-79
2023/02/14 02:43:54;;;;;;;;;;;4.50;1.00;;;;;;5055233;28;19909;-78
2023/02/14 02:46:47;;;;;;;;;;;4.40;1.00;;;;;;5055362;28;19923;-79
2023/02/14 02:55:18;;;;;;;;;;;4.30;1.00;;;;;;5055241;28;19963;-78
2023/02/14 02:57:44;;;;;;;;;;;4.30;1.00;;;;;;5055412;28;19915;-79
2023/02/14 03:00:13;;;;;;;;;;;4.30;1.00;;;;;;5053639;28;19915;-79
2023/02/14 03:05:32;;;;;;;;;;;4.20;1.00;;;;;;5055358;28;19916;-78
2023/02/14 03:07:58;;;;;;;;;;;4.30;1.00;;;;;;5039495;28;20015;-78
2023/02/14 03:10:26;;;;;;;;;;;4.30;1.00;;;;;;5040949;28;19948;-78
2023/02/14 03:13:10;;;;;;;;;;;4.30;4.00;;;;;;5040774;28;20011;-79
2023/02/14 03:15:35;;;;;;;;;;;4.30;8.60;;;;;;5039962;28;19948;-78
2023/02/14 03:18:07;;;;;;;;;;;4.30;9.20;;;;;;5040448;28;19909;-78
2023/02/14 03:20:48;;;;;;;;;;;4.40;1.00;;;;;;5058112;28;19916;-79
2023/02/14 03:23:13;;;;;;;;;;;4.40;1.00;;;;;;5057765;28;20000;-79
2023/02/14 03:25:39;;;;;;;;;;;4.40;9.70;;;;;;5058408;28;20342;-79
2023/02/14 03:28:07;;;;;;;;;;;4.40;4.90;;;;;;5040195;28;20251;-78
2023/02/14 03:30:42;;;;;;;;;;;4.40;6.40;;;;;;5057965;28;19913;-78
2023/02/14 03:33:12;;;;;;;;;;;4.40;5.40;;;;;;5058414;28;19916;-79
2023/02/14 03:35:45;;;;;;;;;;;4.40;3.40;;;;;;5040157;28;19928;-79
2023/02/14 03:38:14;;;;;;;;;;;4.50;12.10;;;;;;5040113;28;20277;-79
2023/02/14 03:40:48;;;;;;;;;;;4.50;7.20;;;;;;5040110;28;19908;-79
2023/02/14 03:43:33;;;;;;;;;;;4.50;9.40;;;;;;5039333;28;19909;-79
2023/02/14 03:46:02;;;;;;;;;;;4.50;11.60;;;;;;5039687;28;19921;-79
2023/02/14 03:48:27;;;;;;;;;;;4.50;10.20;;;;;;5058090;28;19913;-79
2023/02/14 03:50:54;;;;;;;;;;;4.50;3.30;;;;;;5039615;28;19916;-79
2023/02/14 03:53:21;;;;;;;;;;;4.50;6.00;;;;;;5057692;28;19909;-79
2023/02/14 03:55:53;;;;;;;;;;;4.50;11.60;;;;;;5039400;28;19915;-79
2023/02/14 03:58:27;;;;;;;;;;;4.50;5.30;;;;;;5057787;28;19974;-79
2023/02/14 04:00:55;;;;;;;;;;;4.50;8.50;;;;;;5057520;28;20274;-78
2023/02/14 04:03:23;;;;;;;;;;;4.50;6.70;;;;;;5057302;28;20405;-78
2023/02/14 04:06:01;;;;;;;;;;;4.50;6.00;;;;;;5065147;22;20386;-78
2023/02/14 04:08:35;;;;;;;;;;;4.50;1.00;;;;;;5037209;28;19921;-79
2023/02/14 04:11:04;;;;;;;;;;;4.50;1.00;;;;;;5021215;28;19916;-79
2023/02/14 04:13:35;;;;;;;;;;;4.40;1.00;;;;;;5018992;28;20539;-79
2023/02/14 04:16:03;;;;;;;;;;;4.40;1.00;;;;;;5036758;28;20388;-79
2023/02/14 04:21:26;;;;;;;;;;;4.30;1.00;;;;;;5036689;28;19917;-78
2023/02/14 04:24:00;;;;;;;;;;;4.20;1.00;;;;;;5035401;28;19909;-79
2023/02/14 04:26:29;;;;;;;;;;;4.10;1.00;;;;;;5036682;28;20377;-79
2023/02/14 04:29:02;;;;;;;;;;;4.10;1.00;;;;;;5036495;28;19916;-78
2023/02/14 04:34:16;;;;;;;;;;;4.00;1.00;;;;;;5037317;28;19949;-79
2023/02/14 04:36:45;;;;;;;;;;;4.00;1.00;;;;;;5036632;28;19952;-79
2023/02/14 04:39:13;;;;;;;;;;;4.00;1.00;;;;;;5018535;28;19909;-78
2023/02/14 04:41:44;;;;;;;;;;;4.00;1.00;;;;;;5034886;28;19917;-78
2023/02/14 04:44:20;;;;;;;;;;;3.90;1.00;;;;;;5036390;28;20347;-78
2023/02/14 04:46:48;;;;;;;;;;;3.80;1.00;;;;;;5018090;28;19915;-79
2023/02/14 04:49:32;;;;;;;;;;;3.70;1.00;;;;;;5034809;28;19917;-78
2023/02/14 04:52:06;;;;;;;;;;;3.70;1.00;;;;;;5034672;28;19915;-77
2023/02/14 04:54:39;;;;;;;;;;;3.60;1.00;;;;;;5035945;28;20294;-78
2023/02/14 04:57:09;;;;;;;;;;;3.60;2.70;;;;;;5036812;28;19909;-79
2023/02/14 04:59:48;;;;;;;;;;;3.50;2.70;;;;;;5035889;28;19909;-79
2023/02/14 05:02:19;;;;;;;;;;;3.50;1.70;;;;;;5018054;28;20327;-78
2023/02/14 05:04:50;;;;;;;;;;;3.50;4.40;;;;;;5036119;28;19909;-78
2023/02/14 05:07:21;;;;;;;;;;;3.40;6.80;;;;;;5035509;28;20396;-78
2023/02/14 05:09:51;;;;;;;;;;;3.40;7.30;;;;;;5036150;28;20283;-79
2023/02/14 05:12:27;;;;;;;;;;;3.40;8.20;;;;;;5035552;28;19940;-78
2023/02/14 05:15:02;;;;;;;;;;;;;;;;;;;;;
2023/02/14 05:17:36;;;;;;;;;;;3.30;8.70;;;;;;5036336;28;19915;-78
2023/02/14 05:20:10;;;;;;;;;;;3.30;14.10;;;;;;5035348;28;20287;-77
2023/02/14 05:22:40;;;;;;;;;;;3.30;12.90;;;;;;5035198;28;19910;-78
2023/02/14 05:25:11;;;;;;;;;;;3.30;17.80;;;;;;5035367;28;19909;-77
2023/02/14 05:27:39;;;;;;;;;;;3.30;14.80;;;;;;5034860;28;19913;-78
2023/02/14 05:30:08;;;;;;;;;;;3.30;19.80;;;;;;5035194;28;19932;-78
2023/02/14 05:32:52;;;;;;;;;;;3.30;25.40;;;;;;5035312;28;19967;-77
2023/02/14 05:35:17;;;;;;;;;;;3.30;27.00;;;;;;5049245;22;19925;-78
2023/02/14 05:37:43;;;;;;;;;;;3.40;40.80;;;;;;5074731;28;19924;-78
2023/02/14 05:40:12;;;;;;;;;;;3.50;39.70;;;;;;5075936;28;20058;-78
2023/02/14 05:42:37;;;;;;;;;;;3.50;46.30;;;;;;5056883;28;19909;-78
2023/02/14 05:45:03;;;;;;;;;;;3.70;69.30;;;;;;5075204;28;20290;-78
2023/02/14 05:47:28;;;;;;;;;;;3.80;69.90;;;;;;5075525;28;19913;-78
2023/02/14 05:49:54;;;;;;;;;;;3.90;69.60;;;;;;5075766;28;19909;-78
2023/02/14 05:52:19;;;;;;;;;;;4.00;73.80;;;;;;5056558;28;19908;-77
2023/02/14 05:54:45;;;;;;;;;;;4.00;65.30;;;;;;5075078;28;20366;-78
2023/02/14 05:57:10;;;;;;;;;;;4.00;58.20;;;;;;5075101;28;19908;-78
2023/02/14 05:59:36;;;;;;;;;;;4.00;51.00;;;;;;5075216;28;19908;-78
2023/02/14 06:02:01;;;;;;;;;;;4.00;45.50;;;;;;5075076;28;19909;-77
2023/02/14 06:04:27;;;;;;;;;;;4.10;44.80;;;;;;5075344;28;20362;-78
2023/02/14 06:06:52;;;;;;;;;;;4.10;35.80;;;;;;5074541;28;19908;-79
2023/02/14 06:09:18;;;;;;;;;;;4.10;37.60;;;;;;5074395;28;19919;-79
2023/02/14 06:11:44;;;;;;;;;;;4.10;34.00;;;;;;5074533;28;20011;-78
2023/02/14 06:14:09;;;;;;;;;;;4.00;33.20;;;;;;5074319;28;19955;-78
2023/02/14 06:16:35;;;;;;;;;;;4.10;31.30;;;;;;5056754;28;19908;-78
2023/02/14 06:19:00;;;;;;;;;;;4.00;20.40;;;;;;5074616;28;19908;-77
2023/02/14 06:21:26;;;;;;;;;;;4.00;25.50;;;;;;5056165;28;19912;-78
2023/02/14 06:23:51;;;;;;;;;;;4.00;30.40;;;;;;5075571;28;19909;-78
2023/02/14 06:26:17;;;;;;;;;;;4.00;29.10;;;;;;5057436;28;20293;-78
2023/02/14 06:28:42;;;;;;;;;;;4.00;31.70;;;;;;5056394;28;19947;-79
2023/02/14 06:31:13;;;;;;;;;;;4.00;37.10;;;;;;5074457;28;20445;-78
2023/02/14 06:33:46;;;;;;;;;;;4.00;42.00;;;;;;5074540;28;19919;-79
2023/02/14 06:36:12;;;;;;;;;;;4.00;32.50;;;;;;5055657;28;20006;-78
2023/02/14 06:38:37;;;;;;;;;;;3.90;34.60;;;;;;5074727;28;19909;-78
2023/02/14 06:41:04;;;;;;;;;;;3.90;39.10;;;;;;5074213;28;19974;-78
2023/02/14 06:43:29;;;;;;;;;;;3.90;40.20;;;;;;5077517;28;19908;-78
2023/02/14 06:45:55;;;;;;;;;;;3.90;40.20;;;;;;5078065;28;20385;-78
2023/02/14 06:48:20;;;;;;;;;;;3.90;46.70;;;;;;5078563;28;19912;-78
2023/02/14 06:50:46;;;;;;;;;;;3.80;41.00;;;;;;5060220;28;19908;-78
2023/02/14 06:53:11;;;;;;;;;;;3.80;43.40;;;;;;5077872;28;20377;-78
2023/02/14 06:55:37;;;;;;;;;;;3.90;41.20;;;;;;5077261;28;19909;-78
2023/02/14 06:58:04;;;;;;;;;;;3.90;45.30;;;;;;5058719;28;20281;-78
2023/02/14 07:00:29;;;;;;;;;;;3.90;49.90;;;;;;5077869;28;19908;-79
2023/02/14 07:02:55;;;;;;;;;;;3.90;40.90;;;;;;5059470;28;19909;-78
2023/02/14 07:05:23;;;;;;;;;;;3.90;29.70;;;;;;5059459;28;19979;-78
2023/02/14 07:07:49;;;;;;;;;;;3.90;31.90;;;;;;5077923;28;19958;-78
2023/02/14 07:10:15;;;;;;;;;;;3.90;25.30;;;;;;5059523;28;19908;-78
2023/02/14 07:12:40;;;;;;;;;;;3.90;26.30;;;;;;5059181;28;19909;-78
2023/02/14 07:17:39;;;;;;;;;;;4.00;42.60;;;;;;5075632;28;19939;-78
2023/02/14 07:20:05;;;;;;;;;;;4.10;48.80;;;;;;5058990;28;19908;-78
2023/02/14 07:22:31;;;;;;;;;;;4.20;57.60;;;;;;5076416;28;19915;-79
2023/02/14 07:24:57;;;;;;;;;;;4.30;60.80;;;;;;5077041;28;20429;-78
2023/02/14 07:27:22;;;;;;;;;;;4.40;62.00;;;;;;5077527;28;19950;-78
2023/02/14 07:29:48;;;;;;;;;;;4.50;50.40;;;;;;5059152;28;19960;-78
2023/02/14 07:32:13;;;;;;;;;;;4.60;51.40;;;;;;5077434;28;19909;-78
2023/02/14 07:34:38;;;;;;;;;;;4.60;45.90;;;;;;5059417;28;19909;-78
2023/02/14 07:37:04;;;;;;;;;;;4.70;47.50;;;;;;5059359;28;19909;-79
2023/02/14 07:39:30;;;;;;;;;;;4.80;42.60;;;;;;5059650;28;20358;-78
2023/02/14 07:41:55;;;;;;;;;;;4.90;36.90;;;;;;5058855;28;19908;-79
2023/02/14 07:44:20;;;;;;;;;;;5.00;34.10;;;;;;5077601;28;19908;-78
2023/02/14 07:46:46;;;;;;;;;;;5.00;30.00;;;;;;5077275;28;19958;-78
2023/02/14 07:49:11;;;;;;;;;;;5.10;27.20;;;;;;5059225;28;20003;-78
2023/02/14 07:51:37;;;;;;;;;;;5.20;19.70;;;;;;5077537;28;19909;-78
2023/02/14 07:54:02;;;;;;;;;;;5.20;20.10;;;;;;5059031;28;19958;-78
2023/02/14 07:56:28;;;;;;;;;;;5.30;15.70;;;;;;5077583;28;19977;-79
2023/02/14 07:58:54;;;;;;;;;;;5.40;20.70;;;;;;5079493;28;19962;-78
2023/02/14 08:01:19;;;;;;;;;;;5.40;14.40;;;;;;5061927;28;19970;-79
2023/02/14 08:03:48;;;;;;;;;;;5.50;11.70;;;;;;5061247;28;19999;-79
2023/02/14 08:06:14;;;;;;;;;;;5.60;6.70;;;;;;5079575;28;19909;-79
2023/02/14 08:08:39;;;;;;;;;;;5.70;6.90;;;;;;5079449;28;19956;-79
2023/02/14 08:11:05;;;;;;;;;;;5.70;1.00;;;;;;5061124;28;19946;-79
2023/02/14 08:13:30;;;;;;;;;;;5.90;1.00;;;;;;5061243;28;19957;-79
2023/02/14 08:16:05;;;;;;;;;;;5.90;1.00;;;;;;5061446;28;20377;-79
2023/02/14 08:18:32;;;;;;;;;;;6.00;1.00;;;;;;5061032;28;19930;-78
2023/02/14 08:20:57;;;;;;;;;;;6.10;1.00;;;;;;5079587;28;20340;-78
2023/02/14 08:23:23;;;;;;;;;;;6.20;1.00;;;;;;5060642;28;19912;-79
2023/02/14 08:25:49;;;;;;;;;;;6.30;1.00;;;;;;5078415;28;20344;-78
2023/02/14 08:28:14;;;;;;;;;;;6.40;1.00;;;;;;5078479;28;19935;-79
2023/02/14 08:30:40;;;;;;;;;;;6.50;1.00;;;;;;5060427;28;19908;-78
2023/02/14 08:33:05;;;;;;;;;;;6.50;1.00;;;;;;5060458;28;19908;-79
2023/02/14 08:35:31;;;;;;;;;;;6.60;1.00;;;;;;5060337;28;19915;-79
2023/02/14 08:37:56;;;;;;;;;;;6.60;1.00;;;;;;5059949;28;19908;-78
2023/02/14 08:40:22;;;;;;;;;;;6.70;1.00;;;;;;5077881;28;20389;-78
2023/02/14 08:42:47;;;;;;;;;;;6.70;1.00;;;;;;5077281;28;20338;-78
2023/02/14 08:45:13;;;;;;;;;;;6.80;1.00;;;;;;5058384;28;19932;-78
2023/02/14 08:47:39;;;;;;;;;;;6.90;1.00;;;;;;5075944;28;20289;-78
2023/02/14 08:50:05;;;;;;;;;;;6.90;1.00;;;;;;5058235;28;20288;-78
2023/02/14 08:52:31;;;;;;;;;;;7.00;1.00;;;;;;5058838;28;19974;-79
2023/02/14 08:54:56;;;;;;;;;;;7.00;1.00;;;;;;5058442;28;19908;-80
2023/02/14 08:57:22;;;;;;;;;;;7.10;1.00;;;;;;5058778;28;19909;-79
2023/02/14 08:59:47;;;;;;;;;;;7.20;1.00;;;;;;5058327;28;19909;-79
2023/02/14 09:02:13;;;;;;;;;;;7.30;1.00;;;;;;5075504;28;19913;-79
2023/02/14 09:04:38;;;;;;;;;;;7.30;1.00;;;;;;5057673;28;20265;-78
2023/02/14 09:07:04;;;;;;;;;;;7.40;1.00;;;;;;5058091;28;20421;-78
2023/02/14 09:09:30;;;;;;;;;;;7.50;1.00;;;;;;5058400;28;20065;-80
2023/02/14 09:11:56;;;;;;;;;;;7.60;1.00;;;;;;5076281;28;19908;-79
2023/02/14 09:14:23;;;;;;;;;;;7.70;1.00;;;;;;5058387;28;20535;-79
2023/02/14 09:16:49;;;;;;;;;;;7.80;1.00;;;;;;5075020;28;19955;-79
2023/02/14 09:19:14;;;;;;;;;;;7.90;1.00;;;;;;5058138;28;19958;-78
2023/02/14 09:21:40;;;;;;;;;;;7.90;1.00;;;;;;5075347;28;19909;-79
2023/02/14 09:24:05;;;;;;;;;;;8.00;1.00;;;;;;5055271;28;20455;-79
2023/02/14 09:26:31;;;;;;;;;;;8.10;1.00;;;;;;5051592;28;20000;-79
2023/02/14 09:28:57;;;;;;;;;;;8.10;1.00;;;;;;5068042;28;20269;-78
2023/02/14 09:31:23;;;;;;;;;;;8.20;1.00;;;;;;5073424;28;19916;-78
2023/02/14 09:33:50;;;;;;;;;;;8.20;1.00;;;;;;5055143;28;19909;-79
2023/02/14 09:36:21;;;;;;;;;;;8.30;1.00;;;;;;5054502;28;19909;-79
2023/02/14 09:38:47;;;;;;;;;;;8.40;1.00;;;;;;5037380;28;19948;-78
2023/02/14 09:41:35;;;;;;;;;;;8.40;1.00;;;;;;5037300;28;19909;-79
2023/02/14 09:44:04;;;;;;;;;;;8.50;1.00;;;;;;5047013;28;19909;-78
2023/02/14 09:46:32;;;;;;;;;;;8.60;1.00;;;;;;5055353;28;19917;-79
2023/02/14 09:48:58;;;;;;;;;;;8.60;1.00;;;;;;5037047;28;19917;-79
2023/02/14 09:51:25;;;;;;;;;;;8.70;1.00;;;;;;5054981;28;19955;-80
2023/02/14 09:54:08;;;;;;;;;;;8.80;1.00;;;;;;5055467;28;20003;-79
2023/02/14 09:56:52;;;;;;;;;;;8.90;99.90;;;;;;5037622;28;19913;-80
2023/02/14 09:59:23;;;;;;;;;;;9.00;99.90;;;;;;5055721;28;20470;-79
2023/02/14 10:01:50;;;;;;;;;;;9.20;99.90;;;;;;5037058;28;19919;-79
2023/02/14 10:04:19;;;;;;;;;;;9.30;99.90;;;;;;5037748;28;19955;-79
2023/02/14 10:07:09;;;;;;;;;;;9.40;99.90;;;;;;5055307;28;19913;-79
2023/02/14 10:09:37;;;;;;;;;;;9.40;99.90;;;;;;5055310;28;19970;-79
2023/02/14 10:12:03;;;;;;;;;;;9.50;99.90;;;;;;5038386;28;19955;-79
2023/02/14 10:14:32;;;;;;;;;;;9.60;1.00;;;;;;5075227;28;19984;-79
2023/02/14 10:17:02;;;;;;;;;;;9.60;1.00;;;;;;5076518;28;19967;-80
2023/02/14 10:19:37;;;;;;;;;;;9.60;10.40;;;;;;5078392;28;19908;-80
2023/02/14 10:22:05;;;;;;;;;;;9.80;1.00;;;;;;5079003;28;19909;-80
2023/02/14 10:24:36;;;;;;;;;;;9.80;1.00;;;;;;5063716;28;19984;-80
2023/02/14 10:27:10;;;;;;;;;;;10.00;1.00;;;;;;5064483;28;20000;-80
2023/02/14 10:29:35;;;;;;;;;;;10.10;99.90;;;;;;5082553;28;20293;-80
2023/02/14 10:32:02;;;;;;;;;;;10.20;99.90;;;;;;5065745;28;19908;-80
2023/02/14 10:34:44;;;;;;;;;;;10.30;1.00;;;;;;5085635;28;19976;-80
2023/02/14 10:37:13;;;;;;;;;;;10.30;1.00;;;;;;5062283;28;19962;-80
2023/02/14 10:39:45;;;;;;;;;;;10.40;99.90;;;;;;5062587;28;19912;-80
2023/02/14 10:42:13;;;;;;;;;;;10.50;99.90;;;;;;5062502;28;19952;-80
2023/02/14 10:44:59;;;;;;;;;;;10.60;1.00;;;;;;5062282;28;19908;-80
2023/02/14 10:47:30;;;;;;;;;;;10.80;1.00;;;;;;5080462;28;19908;-80
2023/02/14 10:50:22;;;;;;;;;;;10.90;99.90;;;;;;5062035;28;19908;-80
2023/02/14 10:52:58;;;;;;;;;;;11.00;99.90;;;;;;5038428;28;20437;-80
2023/02/14 10:55:31;;;;;;;;;;;11.20;99.90;;;;;;5079842;28;19908;-80
2023/02/14 10:57:57;;;;;;;;;;;11.30;1.00;;;;;;5061741;28;19944;-80
2023/02/14 11:00:22;;;;;;;;;;;11.40;99.90;;;;;;5079627;28;19908;-80
2023/02/14 11:02:50;;;;;;;;;;;11.50;99.90;;;;;;5061571;28;19934;-80
2023/02/14 11:05:34;;;;;;;;;;;11.70;99.90;;;;;;5060948;28;19909;-80
2023/02/14 11:08:00;;;;;;;;;;;11.90;99.90;;;;;;5061445;28;19912;-80
2023/02/14 11:10:29;;;;;;;;;;;12.20;1.00;;;;;;5062240;28;19954;-80
2023/02/14 11:12:55;;;;;;;;;;;13.00;99.90;;;;;;5078860;28;19934;-80
2023/02/14 11:15:20;;;;;;;;;;;15.80;1.00;;;;;;5061780;28;19909;-80
2023/02/14 11:17:46;;;;;;;;;;;18.70;1.00;;;;;;5061575;28;19912;-80
2023/02/14 11:20:17;;;;;;;;;;;21.10;1.00;;;;;;5079059;28;20376;-80
2023/02/14 11:22:43;;;;;;;;;;;23.30;1.00;;;;;;5078848;28;19917;-80
2023/02/14 11:25:19;;;;;;;;;;;24.60;1.00;;;;;;5060739;28;19909;-80
2023/02/14 11:27:49;;;;;;;;;;;25.80;1.00;;;;;;5077599;28;19912;-80
2023/02/14 11:30:21;;;;;;;;;;;26.70;1.00;;;;;;5060633;28;19909;-81
2023/02/14 11:32:53;;;;;;;;;;;28.00;1.00;;;;;;5060074;28;19916;-81
2023/02/14 11:46:38;;;;;;;;;;;30.80;1.00;;;;;;5064540;28;19916;-81
2023/02/14 11:49:30;;;;;;;;;;;31.80;1.00;;;;;;5077236;28;20259;-81
2023/02/14 11:52:25;;;;;;;;;;;31.90;1.00;;;;;;5060410;28;19916;-81
2023/02/14 11:54:51;;;;;;;;;;;31.10;1.00;;;;;;5096418;22;20282;-83
2023/02/14 11:57:20;;;;;;;;;;;30.60;1.00;;;;;;5056626;28;19909;-83
2023/02/14 11:59:47;;;;;;;;;;;31.10;1.00;;;;;;5056616;28;19912;-84
2023/02/14 12:02:12;;;;;;;;;;;31.50;1.00;;;;;;5056406;28;19915;-84
2023/02/14 12:04:39;;;;;;;;;;;32.40;1.00;;;;;;5056545;28;20098;-84
2023/02/14 12:07:13;;;;;;;;;;;32.30;1.00;;;;;;5074360;28;19912;-83
2023/02/14 12:09:41;;;;;;;;;;;32.20;1.00;;;;;;5056455;28;19912;-84
2023/02/14 12:12:15;;;;;;;;;;;32.30;1.00;;;;;;5056193;28;19975;-84
2023/02/14 12:14:40;;;;;;;;;;;33.10;1.00;;;;;;5056171;28;19909;-84
2023/02/14 12:17:25;;;;;;;;;;;33.20;1.00;;;;;;5074254;28;20266;-84
2023/02/14 12:19:54;;;;;;;;;;;33.10;1.00;;;;;;5056276;28;19915;-84
2023/02/14 12:22:43;;;;;;;;;;;33.30;1.00;;;;;;5055868;28;19934;-83
2023/02/14 12:25:13;;;;;;;;;;;32.90;1.00;;;;;;5048473;28;19915;-84
2023/02/14 12:27:47;;;;;;;;;;;32.20;1.00;;;;;;5055971;28;20003;-85
2023/02/14 12:30:13;;;;;;;;;;;32.20;1.00;;;;;;5056394;28;19908;-84
2023/02/14 12:32:53;;;;;;;;;;;32.20;1.00;;;;;;5055768;28;20199;-84
2023/02/14 12:35:28;;;;;;;;;;;30.60;1.00;;;;;;5055663;28;19908;-85
2023/02/14 12:37:53;;;;;;;;;;;30.20;1.00;;;;;;5056091;28;19912;-85
2023/02/14 12:40:31;;;;;;;;;;;29.60;1.00;;;;;;5070090;28;20007;-85
2023/02/14 12:43:08;;;;;;;;;;;27.80;1.00;;;;;;5059051;28;19976;-83
2023/02/14 12:45:49;;;;;;;;;;;26.50;1.00;;;;;;5052935;28;19920;-82
2023/02/14 12:48:21;;;;;;;;;;;27.00;1.00;;;;;;5073824;28;20289;-83
2023/02/14 12:50:50;;;;;;;;;;;26.40;1.00;;;;;;5055686;28;19909;-84
2023/02/14 12:53:24;;;;;;;;;;;24.60;1.00;;;;;;5053429;28;19950;-84
2023/02/14 12:55:50;;;;;;;;;;;23.40;99.90;;;;;;5049787;28;19948;-84
2023/02/14 12:58:15;;;;;;;;;;;22.50;99.90;;;;;;5034997;28;20366;-84
2023/02/14 13:00:50;;;;;;;;;;;21.90;99.90;;;;;;5035180;28;20255;-83
2023/02/14 13:03:31;;;;;;;;;;;21.60;99.90;;;;;;5052701;28;19923;-84
2023/02/14 13:06:28;;;;;;;;;;;22.70;99.90;;;;;;5054717;28;19969;-84
2023/02/14 13:09:13;;;;;;;;;;;25.00;99.90;;;;;;5022073;28;19938;-84
2023/02/14 13:11:46;;;;;;;;;;;26.90;1.00;;;;;;5072476;28;19915;-83
2023/02/14 13:14:23;;;;;;;;;;;27.40;1.00;;;;;;5052600;28;19966;-84
2023/02/14 13:16:49;;;;;;;;;;;27.90;1.00;;;;;;5043404;28;19912;-83
2023/02/14 13:19:23;;;;;;;;;;;29.80;1.00;;;;;;5035938;28;19919;-84
2023/02/14 13:21:48;;;;;;;;;;;30.90;1.00;;;;;;5049911;28;20411;-84
2023/02/14 13:24:17;;;;;;;;;;;32.20;1.00;;;;;;5053285;28;19913;-82
2023/02/14 13:26:44;;;;;;;;;;;33.30;1.00;;;;;;5054924;28;19910;-84
2023/02/14 13:29:13;;;;;;;;;;;33.50;1.00;;;;;;5052110;28;19912;-84
2023/02/14 13:31:39;;;;;;;;;;;33.40;1.00;;;;;;5034890;28;19909;-87
2023/02/14 13:34:27;;;;;;;;;;;32.70;1.00;;;;;;5052192;28;19916;-83
2023/02/14 13:36:54;;;;;;;;;;;32.80;1.00;;;;;;5068709;28;19916;-85
2023/02/14 13:39:28;;;;;;;;;;;31.10;1.00;;;;;;5072252;28;19914;-84
2023/02/14 13:41:53;;;;;;;;;;;30.10;1.00;;;;;;5055289;28;19920;-83
2023/02/14 13:44:37;;;;;;;;;;;28.90;1.00;;;;;;5055817;28;20029;-84
2023/02/14 13:47:04;;;;;;;;;;;28.00;1.00;;;;;;5053263;28;20061;-83
2023/02/14 13:49:32;;;;;;;;;;;26.60;1.00;;;;;;5063786;28;19913;-82
2023/02/14 13:52:02;;;;;;;;;;;25.50;1.00;;;;;;5065114;28;20328;-82
2023/02/14 13:54:33;;;;;;;;;;;24.50;99.90;;;;;;5059100;28;19992;-82
2023/02/14 13:56:59;;;;;;;;;;;23.70;99.90;;;;;;5060345;28;19913;-83
2023/02/14 13:59:32;;;;;;;;;;;22.80;99.90;;;;;;5040153;28;19920;-84
2023/02/14 14:02:17;;;;;;;;;;;21.60;99.90;;;;;;5041103;28;20427;-84
2023/02/14 14:04:42;;;;;;;;;;;20.80;99.90;;;;;;5037280;28;20341;-84
2023/02/14 14:07:37;;;;;;;;;;;20.10;99.90;;;;;;5056206;28;19909;-85
2023/02/14 14:10:04;;;;;;;;;;;19.70;99.90;;;;;;5022721;28;19919;-83
2023/02/14 14:12:32;;;;;;;;;;;19.20;99.90;;;;;;5050872;28;19931;-81
2023/02/14 14:15:07;;;;;;;;;;;18.90;99.90;;;;;;5034593;28;20404;-81
2023/02/14 14:17:32;;;;;;;;;;;19.40;99.90;;;;;;5038112;28;20420;-83
2023/02/14 14:19:58;;;;;;;;;;;20.40;99.90;;;;;;5035165;28;19956;-84
2023/02/14 14:22:24;;;;;;;;;;;21.10;99.90;;;;;;5052258;28;19945;-84
2023/02/14 14:24:52;;;;;;;;;;;21.80;99.90;;;;;;5034418;28;19958;-83
2023/02/14 14:27:37;;;;;;;;;;;21.90;99.90;;;;;;5052102;28;19908;-83
2023/02/14 14:30:15;;;;;;;;;;;21.80;99.90;;;;;;5033667;28;19908;-82
2023/02/14 14:32:42;;;;;;;;;;;21.60;99.90;;;;;;5034279;28;20047;-83
2023/02/14 14:35:11;;;;;;;;;;;21.30;99.90;;;;;;5050868;28;19995;-84
2023/02/14 14:37:47;;;;;;;;;;;20.90;99.90;;;;;;5034096;28;19909;-84
2023/02/14 14:40:33;;;;;;;;;;;20.50;99.90;;;;;;5051830;28;20003;-82
2023/02/14 14:43:08;;;;;;;;;;;20.10;99.90;;;;;;5042339;28;20015;-83
2023/02/14 14:45:34;;;;;;;;;;;19.80;99.90;;;;;;5064447;28;19909;-83
2023/02/14 14:48:06;;;;;;;;;;;19.40;99.90;;;;;;5050720;28;20408;-83
2023/02/14 14:50:32;;;;;;;;;;;19.00;99.90;;;;;;5048893;28;19916;-82
2023/02/14 14:53:02;;;;;;;;;;;18.80;99.90;;;;;;5053762;28;20361;-83
2023/02/14 14:55:38;;;;;;;;;;;18.60;99.90;;;;;;5053987;28;19912;-83
2023/02/14 14:58:04;;;;;;;;;;;18.30;99.90;;;;;;5072252;28;20046;-82
2023/02/14 15:00:32;;;;;;;;;;;18.10;99.90;;;;;;5053681;28;20284;-82
2023/02/14 15:02:59;;;;;;;;;;;17.90;99.90;;;;;;5054309;28;20450;-82
2023/02/14 15:05:27;;;;;;;;;;;17.70;99.90;;;;;;5057629;28;20411;-82
2023/02/14 15:07:52;;;;;;;;;;;17.50;99.90;;;;;;5057782;28;19919;-81
2023/02/14 15:10:25;;;;;;;;;;;17.30;99.90;;;;;;5075334;28;19909;-82
2023/02/14 15:15:36;;;;;;;;;;;17.00;99.90;;;;;;5075608;28;19915;-82
2023/02/14 15:18:06;;;;;;;;;;;16.80;99.90;;;;;;5057604;28;20508;-81
2023/02/14 15:20:31;;;;;;;;;;;16.60;99.90;;;;;;5057198;28;19915;-82
2023/02/14 15:22:57;;;;;;;;;;;16.40;99.90;;;;;;5057191;28;19908;-82
2023/02/14 15:25:30;;;;;;;;;;;16.30;99.90;;;;;;5056892;28;19962;-83
2023/02/14 15:27:56;;;;;;;;;;;16.20;99.90;;;;;;5075559;28;19916;-81
2023/02/14 15:30:28;;;;;;;;;;;16.00;99.90;;;;;;5056925;28;20316;-81
2023/02/14 15:32:54;;;;;;;;;;;15.90;99.90;;;;;;5057002;28;19944;-82